createdAt,value
2024-02-28T00:10:40.123Z,8.40
2024-02-28T00:36:04.633Z,8.30
2024-02-28T06:56:18.629Z,9.20
2024-02-28T07:16:58.978Z,9.70
2024-02-28T07:37:14.380Z,10.40
2024-02-28T08:02:15.684Z,10.60
2024-02-28T08:22:53.754Z,10.80
2024-02-28T08:48:36.362Z,11.20
2024-02-28T09:18:39.529Z,12.10
2024-02-28T09:49:12.767Z,12.70
2024-02-28T10:14:35.038Z,13.40
2024-02-28T10:44:35.230Z,12.90
2024-02-28T11:10:25.891Z,12.80
2024-02-28T11:30:28.911Z,13.00
2024-02-28T11:56:04.755Z,12.90
2024-02-28T12:21:25.692Z,12.50
2024-02-28T12:52:01.721Z,11.70
2024-02-28T13:17:04.509Z,11.00
2024-02-28T13:32:36.904Z,10.70
2024-02-28T14:03:01.969Z,10.20
2024-02-28T14:28:18.243Z,10.10
2024-02-28T14:53:40.611Z,9.50
2024-02-28T15:19:15.316Z,9.50
2024-02-28T15:38:50.539Z,9.50
2024-02-28T15:59:22.580Z,9.30
2024-02-28T16:39:42.724Z,9.20
2024-02-28T17:00:40.937Z,9.20
2024-02-28T17:51:12.707Z,9.10
2024-02-28T18:21:08.525Z,9.00
2024-02-28T18:41:29.230Z,8.90
2024-02-28T18:57:16.466Z,8.80
2024-02-28T19:27:39.086Z,8.70
2024-02-28T20:53:55.503Z,8.00
2024-02-28T21:18:54.795Z,7.90
2024-02-28T21:44:43.145Z,7.80
2024-02-28T22:10:01.454Z,7.80
2024-02-28T22:49:57.567Z,7.60
2024-02-28T23:05:36.928Z,7.50
2024-02-28T23:35:39.330Z,7.30
2024-02-28T23:56:37.267Z,7.30
